createdAt,value
2023-01-19T00:01:39.863Z,60.17
2023-01-19T00:03:42.346Z,59.38
2023-01-19T00:05:44.597Z,61.85
2023-01-19T00:07:46.779Z,60.22
2023-01-19T00:09:48.436Z,61.88
2023-01-19T00:11:50.464Z,68.03
2023-01-19T00:13:53.667Z,60.47
2023-01-19T00:15:55.813Z,62.63
2023-01-19T00:17:57.571Z,65.28
2023-01-19T00:19:59.339Z,64.38
2023-01-19T00:22:01.435Z,64.17
2023-01-19T00:24:03.245Z,70.97
2023-01-19T00:26:05.313Z,66.75
2023-01-19T00:28:07.118Z,69.82
2023-01-19T00:30:09.043Z,70.15
2023-01-19T00:32:11.296Z,73.68
2023-01-19T00:34:12.963Z,72.70
2023-01-19T00:36:15.863Z,71.67
2023-01-19T00:38:17.600Z,69.13
2023-01-19T00:40:19.961Z,72.07
2023-01-19T00:42:40.231Z,73.88
2023-01-19T00:44:42.245Z,71.63
2023-01-19T00:46:43.898Z,73.15
2023-01-19T00:48:45.976Z,76.70
2023-01-19T00:50:47.938Z,68.60
2023-01-19T00:52:50.024Z,70.25
2023-01-19T00:54:51.724Z,75.90
2023-01-19T00:56:53.597Z,71.70
2023-01-19T00:58:55.621Z,75.65
2023-01-19T01:01:03.598Z,72.15
2023-01-19T01:03:05.884Z,71.15
2023-01-19T01:05:08.704Z,67.38
2023-01-19T01:07:10.453Z,71.13
2023-01-19T01:09:12.492Z,70.77
2023-01-19T01:11:14.247Z,69.40
2023-01-19T01:13:20.460Z,67.35
2023-01-19T01:15:24.000Z,70.00
2023-01-19T01:17:26.325Z,72.35
2023-01-19T01:19:28.746Z,73.50
2023-01-19T01:21:30.902Z,69.97
2023-01-19T01:23:32.992Z,72.03
2023-01-19T01:25:37.772Z,71.70
2023-01-19T01:27:39.512Z,70.75
2023-01-19T01:29:46.486Z,72.10
2023-01-19T01:31:48.233Z,72.65
2023-01-19T01:33:50.251Z,75.50
2023-01-19T01:35:52.248Z,73.22
2023-01-19T01:37:57.920Z,70.97
2023-01-19T01:39:59.661Z,68.97
2023-01-19T01:42:02.035Z,71.20
2023-01-19T01:44:08.310Z,76.72
2023-01-19T01:46:10.723Z,70.57
2023-01-19T01:48:15.928Z,73.75
2023-01-19T01:50:19.576Z,75.35
2023-01-19T01:52:22.930Z,71.18
2023-01-19T01:54:27.251Z,72.97
2023-01-19T01:56:34.940Z,74.28
2023-01-19T01:58:37.821Z,74.65
2023-01-19T02:00:58.884Z,73.05
2023-01-19T02:03:01.242Z,73.90
2023-01-19T02:05:13.047Z,70.88
2023-01-19T02:07:36.362Z,69.25
2023-01-19T02:09:57.253Z,66.57
2023-01-19T02:12:17.726Z,68.63
2023-01-19T02:14:19.768Z,66.63
2023-01-19T02:16:21.533Z,67.22
2023-01-19T02:18:25.001Z,66.20
2023-01-19T02:22:35.932Z,67.55
2023-01-19T02:24:38.087Z,72.60
2023-01-19T02:26:44.447Z,68.80
2023-01-19T02:28:49.078Z,72.10
2023-01-19T02:30:50.750Z,75.50
2023-01-19T02:32:53.348Z,74.03
2023-01-19T02:34:55.075Z,76.75
2023-01-19T02:36:58.608Z,70.67
2023-01-19T02:39:01.644Z,71.60
2023-01-19T02:41:05.232Z,72.18
2023-01-19T02:43:08.813Z,74.03
2023-01-19T02:45:12.812Z,72.80
2023-01-19T02:47:15.336Z,74.60
2023-01-19T02:49:17.051Z,68.45
2023-01-19T02:51:24.178Z,75.10
2023-01-19T02:53:58.446Z,72.15
2023-01-19T02:56:00.473Z,66.22
2023-01-19T02:58:07.399Z,68.63
2023-01-19T03:00:21.564Z,71.13
2023-01-19T03:02:29.693Z,72.43
2023-01-19T03:04:31.896Z,71.22
2023-01-19T03:06:55.393Z,72.28
2023-01-19T03:09:00.329Z,71.22
2023-01-19T03:11:03.703Z,67.63
2023-01-19T03:13:24.284Z,67.20
2023-01-19T03:15:29.024Z,73.10
2023-01-19T03:17:31.589Z,69.13
2023-01-19T03:19:38.304Z,73.63
2023-01-19T03:21:42.853Z,72.90
2023-01-19T03:23:45.397Z,74.28
2023-01-19T03:25:48.375Z,71.10
2023-01-19T03:27:52.101Z,76.07
2023-01-19T03:29:59.241Z,70.32
2023-01-19T03:32:03.135Z,75.97
2023-01-19T03:34:06.867Z,66.80
2023-01-19T03:36:12.277Z,64.63
2023-01-19T03:38:15.694Z,67.28
2023-01-19T03:40:17.905Z,68.80
2023-01-19T03:42:20.377Z,66.55
2023-01-19T03:44:23.653Z,62.67
2023-01-19T03:46:26.205Z,64.43
2023-01-19T03:50:30.510Z,61.03
2023-01-19T03:52:33.733Z,62.40
2023-01-19T03:56:37.814Z,55.22
2023-01-19T03:58:39.478Z,63.58
2023-01-19T04:00:41.807Z,59.63
2023-01-19T04:02:43.549Z,61.25
2023-01-19T04:04:45.615Z,70.77
2023-01-19T04:06:47.277Z,67.38
2023-01-19T04:08:50.084Z,69.77
2023-01-19T04:10:51.777Z,66.88
2023-01-19T04:12:58.275Z,71.40
2023-01-19T04:15:00.049Z,66.50
2023-01-19T04:17:02.143Z,66.90
2023-01-19T04:19:03.865Z,69.13
2023-01-19T04:21:07.255Z,70.33
2023-01-19T04:23:08.944Z,69.20
2023-01-19T04:25:11.004Z,68.30
2023-01-19T04:27:12.761Z,68.97
2023-01-19T04:29:14.846Z,70.20
2023-01-19T04:31:16.580Z,65.03
2023-01-19T04:33:19.248Z,70.45
2023-01-19T04:35:22.059Z,71.47
2023-01-19T04:37:24.105Z,75.93
2023-01-19T04:39:26.006Z,70.97
2023-01-19T04:41:29.609Z,71.55
2023-01-19T04:43:32.086Z,70.22
2023-01-19T04:45:34.248Z,77.38
2023-01-19T04:47:36.361Z,72.25
2023-01-19T04:49:38.519Z,69.28
2023-01-19T04:51:40.203Z,73.75
2023-01-19T04:53:42.613Z,64.47
2023-01-19T04:55:44.364Z,62.57
2023-01-19T04:57:46.431Z,60.10
2023-01-19T04:59:48.072Z,60.28
2023-01-19T05:01:50.346Z,56.05
2023-01-19T05:03:52.215Z,57.75
2023-01-19T05:05:54.318Z,56.17
2023-01-19T05:07:56.112Z,61.22
2023-01-19T05:09:58.153Z,61.15
2023-01-19T05:11:59.885Z,59.10
2023-01-19T05:14:01.949Z,65.57
2023-01-19T05:16:03.829Z,65.90
2023-01-19T05:18:06.003Z,65.82
2023-01-19T05:20:09.283Z,57.92
2023-01-19T05:22:11.446Z,56.72
2023-01-19T05:24:13.095Z,60.50
2023-01-19T05:26:15.195Z,56.27
2023-01-19T05:28:17.237Z,53.05
2023-01-19T05:30:19.484Z,52.65
2023-01-19T05:32:21.175Z,60.78
2023-01-19T05:34:23.570Z,56.90
2023-01-19T05:36:25.218Z,57.95
2023-01-19T05:38:35.424Z,53.90
2023-01-19T05:40:37.492Z,55.33
2023-01-19T05:42:39.551Z,55.63
2023-01-19T05:44:41.269Z,56.33
2023-01-19T05:46:43.374Z,60.13
2023-01-19T05:48:45.278Z,52.20
2023-01-19T05:50:49.643Z,58.33
2023-01-19T05:52:53.385Z,54.80
2023-01-19T05:54:55.427Z,54.70
2023-01-19T05:56:57.822Z,50.60
2023-01-19T05:59:00.194Z,56.45
2023-01-19T06:01:02.836Z,50.42
2023-01-19T06:03:06.546Z,52.03
2023-01-19T06:05:08.467Z,50.25
2023-01-19T06:07:10.531Z,44.17
2023-01-19T06:09:12.143Z,47.13
2023-01-19T06:11:14.263Z,53.58
2023-01-19T06:13:16.109Z,49.00
2023-01-19T06:15:18.536Z,48.55
2023-01-19T06:17:20.663Z,47.47
2023-01-19T06:19:22.714Z,49.28
2023-01-19T06:21:24.377Z,47.70
2023-01-19T06:23:27.068Z,47.35
2023-01-19T06:25:28.715Z,50.85
2023-01-19T06:27:30.752Z,48.35
2023-01-19T06:29:32.714Z,52.38
2023-01-19T06:31:34.892Z,57.80
2023-01-19T06:33:36.580Z,53.38
2023-01-19T06:35:38.608Z,58.97
2023-01-19T06:37:40.296Z,56.75
2023-01-19T06:39:42.482Z,50.83
2023-01-19T06:41:44.213Z,55.95
2023-01-19T06:43:46.435Z,55.43
2023-01-19T06:45:48.246Z,51.80
2023-01-19T06:47:50.345Z,53.45
2023-01-19T06:49:52.088Z,51.10
2023-01-19T06:51:54.151Z,52.70
2023-01-19T06:53:55.822Z,49.85
2023-01-19T06:56:01.992Z,52.40
2023-01-19T06:58:04.876Z,43.72
2023-01-19T07:00:09.082Z,43.17
2023-01-19T07:02:26.220Z,46.55
2023-01-19T07:04:30.250Z,41.17
2023-01-19T07:06:32.049Z,51.17
2023-01-19T07:08:35.108Z,46.42
2023-01-19T07:11:22.288Z,43.05
2023-01-19T07:12:59.884Z,51.35
2023-01-19T07:15:02.053Z,44.13
2023-01-19T07:17:04.135Z,46.88
2023-01-19T07:19:05.984Z,42.70
2023-01-19T07:21:08.126Z,42.92
2023-01-19T07:23:10.671Z,44.08
2023-01-19T07:25:13.528Z,43.58
2023-01-19T07:27:16.448Z,42.55
2023-01-19T07:29:18.628Z,39.55
2023-01-19T07:31:21.751Z,42.38
2023-01-19T07:33:24.965Z,38.83
2023-01-19T07:35:27.114Z,40.45
2023-01-19T07:37:29.192Z,40.25
2023-01-19T07:39:32.090Z,38.42
2023-01-19T07:41:34.167Z,38.40
2023-01-19T07:43:35.979Z,40.03
2023-01-19T07:45:38.018Z,38.33
2023-01-19T07:47:39.716Z,41.97
2023-01-19T07:49:42.183Z,42.75
2023-01-19T07:51:43.889Z,42.47
2023-01-19T07:53:46.262Z,43.73
2023-01-19T07:55:53.778Z,47.87
2023-01-19T07:57:55.789Z,50.80
2023-01-19T07:59:58.455Z,42.53
2023-01-19T08:04:02.371Z,43.55
2023-01-19T08:06:05.299Z,33.95
2023-01-19T08:08:07.017Z,44.80
2023-01-19T08:10:09.762Z,39.88
2023-01-19T08:12:11.646Z,40.38
2023-01-19T08:14:13.758Z,41.95
2023-01-19T08:16:15.481Z,42.70
2023-01-19T08:18:17.967Z,41.50
2023-01-19T08:20:19.641Z,39.23
2023-01-19T08:22:21.676Z,37.03
2023-01-19T08:24:25.473Z,38.08
2023-01-19T08:26:27.625Z,36.40
2023-01-19T08:28:29.397Z,33.63
2023-01-19T08:30:32.200Z,36.17
2023-01-19T08:32:33.886Z,34.30
2023-01-19T08:34:36.021Z,35.47
2023-01-19T08:36:38.990Z,37.63
2023-01-19T08:38:43.680Z,45.85
2023-01-19T08:40:46.358Z,40.70
2023-01-19T08:44:58.037Z,43.78
2023-01-19T08:47:00.561Z,42.35
2023-01-19T08:49:02.248Z,43.53
2023-01-19T08:51:04.444Z,40.07
2023-01-19T08:53:07.205Z,43.08
2023-01-19T08:55:09.559Z,41.08
2023-01-19T08:57:11.298Z,42.27
2023-01-19T08:59:14.296Z,43.63
2023-01-19T09:01:17.137Z,42.47
2023-01-19T09:03:20.064Z,47.17
2023-01-19T09:05:22.371Z,46.92
2023-01-19T09:07:24.699Z,51.83
2023-01-19T09:09:26.654Z,51.63
2023-01-19T09:11:28.716Z,59.80
2023-01-19T09:13:30.582Z,54.15
2023-01-19T09:15:35.902Z,53.80
2023-01-19T09:17:37.902Z,51.10
2023-01-19T09:19:40.439Z,50.28
2023-01-19T09:21:42.218Z,48.83
2023-01-19T09:23:44.698Z,46.63
2023-01-19T09:25:47.064Z,49.47
2023-01-19T09:27:49.121Z,45.13
2023-01-19T09:29:54.095Z,42.70
2023-01-19T09:31:57.775Z,44.67
2023-01-19T09:33:59.880Z,43.67
2023-01-19T09:36:02.352Z,41.90
2023-01-19T09:38:04.427Z,42.57
2023-01-19T09:40:07.088Z,40.95
2023-01-19T09:42:16.269Z,41.78
2023-01-19T09:44:24.814Z,43.78
2023-01-19T09:46:35.281Z,42.42
2023-01-19T09:48:46.050Z,43.47
2023-01-19T09:50:48.619Z,38.40
2023-01-19T09:52:56.352Z,37.17
2023-01-19T09:54:58.183Z,45.78
2023-01-19T09:57:00.375Z,45.50
2023-01-19T09:59:06.286Z,42.72
2023-01-19T10:01:16.550Z,45.10
2023-01-19T10:03:20.697Z,44.40
2023-01-19T10:05:27.546Z,44.08
2023-01-19T10:07:33.158Z,52.42
2023-01-19T10:09:47.724Z,46.15
2023-01-19T10:11:53.567Z,50.92
2023-01-19T10:13:56.468Z,47.00
2023-01-19T10:16:17.931Z,46.78
2023-01-19T10:18:22.950Z,51.20
2023-01-19T10:20:36.538Z,48.80
2023-01-19T10:22:38.860Z,52.13
2023-01-19T10:24:44.198Z,50.40
2023-01-19T10:26:48.274Z,50.63
2023-01-19T10:28:51.500Z,49.05
2023-01-19T10:30:54.454Z,56.42
2023-01-19T10:32:56.227Z,54.42
2023-01-19T10:34:59.622Z,51.83
2023-01-19T10:39:06.563Z,53.83
2023-01-19T10:41:13.228Z,56.55
2023-01-19T10:43:33.828Z,56.50
2023-01-19T10:45:36.872Z,55.60
2023-01-19T10:47:40.025Z,58.92
2023-01-19T10:49:43.659Z,58.60
2023-01-19T10:51:47.100Z,53.80
2023-01-19T10:53:55.333Z,56.20
2023-01-19T10:56:15.346Z,55.88
2023-01-19T10:58:30.758Z,55.83
2023-01-19T11:00:38.778Z,54.83
2023-01-19T11:02:49.429Z,56.63
2023-01-19T11:04:53.235Z,52.00
2023-01-19T11:07:14.116Z,53.08
2023-01-19T11:09:20.637Z,52.70
2023-01-19T11:11:24.503Z,54.75
2023-01-19T11:13:26.663Z,50.13
2023-01-19T11:15:30.669Z,52.72
2023-01-19T11:17:33.573Z,50.17
2023-01-19T11:19:35.679Z,49.25
2023-01-19T11:21:37.366Z,51.55
2023-01-19T11:23:46.411Z,56.43
2023-01-19T11:25:49.200Z,52.58
2023-01-19T11:27:51.932Z,51.08
2023-01-19T11:30:00.260Z,46.80
2023-01-19T11:32:13.087Z,49.40
2023-01-19T11:34:25.561Z,47.53
2023-01-19T11:36:28.809Z,47.50
2023-01-19T11:40:33.601Z,45.05
2023-01-19T11:42:37.309Z,44.05
2023-01-19T11:44:43.491Z,48.25
2023-01-19T11:46:47.989Z,50.25
2023-01-19T11:49:01.141Z,46.30
2023-01-19T11:51:04.558Z,47.80
2023-01-19T11:53:16.604Z,46.70
2023-01-19T11:55:22.359Z,46.67
2023-01-19T11:57:24.769Z,47.55
2023-01-19T11:59:26.532Z,45.83
2023-01-19T12:01:33.234Z,45.40
2023-01-19T12:03:37.835Z,46.28
2023-01-19T12:05:41.831Z,49.03
2023-01-19T12:07:44.496Z,47.13
2023-01-19T12:11:50.602Z,46.13
2023-01-19T12:13:53.861Z,47.85
2023-01-19T12:17:59.444Z,51.25
2023-01-19T12:20:05.838Z,45.28
2023-01-19T12:22:11.409Z,55.50
2023-01-19T12:24:16.946Z,54.33
2023-01-19T12:26:27.911Z,48.97
2023-01-19T12:28:34.079Z,48.72
2023-01-19T12:30:36.441Z,50.60
2023-01-19T12:32:38.225Z,50.77
2023-01-19T12:34:41.887Z,47.95
2023-01-19T12:36:44.094Z,52.25
2023-01-19T12:38:50.542Z,48.05
2023-01-19T12:41:12.201Z,48.35
2023-01-19T12:43:16.460Z,51.25
2023-01-19T12:45:22.332Z,54.78
2023-01-19T12:47:24.650Z,49.65
2023-01-19T12:49:29.227Z,46.78
2023-01-19T12:51:31.249Z,50.65
2023-01-19T12:53:33.369Z,50.05
2023-01-19T12:55:39.075Z,46.95
2023-01-19T12:57:50.347Z,51.88
2023-01-19T12:59:55.793Z,45.65
2023-01-19T13:02:16.264Z,42.53
2023-01-19T13:04:32.108Z,41.92
2023-01-19T13:06:49.137Z,41.15
2023-01-19T13:08:59.037Z,45.70
2023-01-19T13:11:05.149Z,45.75
2023-01-19T13:13:25.871Z,46.17
2023-01-19T13:15:34.799Z,42.85
2023-01-19T13:17:50.072Z,44.78
2023-01-19T13:19:59.904Z,48.20
2023-01-19T13:22:21.907Z,46.47
2023-01-19T13:24:23.644Z,48.95
2023-01-19T13:26:27.621Z,48.57
2023-01-19T13:28:37.707Z,46.83
2023-01-19T13:30:44.313Z,55.22
2023-01-19T13:32:46.898Z,55.97
2023-01-19T13:34:51.705Z,50.25
2023-01-19T13:36:55.199Z,55.75
2023-01-19T13:38:58.603Z,54.45
2023-01-19T13:41:01.929Z,54.42
2023-01-19T13:43:06.399Z,56.65
2023-01-19T13:45:29.111Z,54.25
2023-01-19T13:47:39.984Z,53.85
2023-01-19T13:49:44.767Z,56.22
2023-01-19T13:51:48.837Z,51.67
2023-01-19T13:53:55.034Z,56.58
2023-01-19T13:56:15.343Z,53.45
2023-01-19T13:58:21.185Z,58.92
2023-01-19T14:00:27.995Z,59.65
2023-01-19T14:02:30.471Z,55.90
2023-01-19T14:06:34.390Z,54.78
2023-01-19T14:08:36.432Z,49.28
2023-01-19T14:10:48.267Z,53.42
2023-01-19T14:13:04.125Z,50.93
2023-01-19T14:15:11.377Z,55.15
2023-01-19T14:17:23.876Z,53.78
2023-01-19T14:19:25.728Z,53.40
2023-01-19T14:21:37.336Z,52.78
2023-01-19T14:23:52.677Z,48.35
2023-01-19T14:25:54.780Z,47.45
2023-01-19T14:28:15.080Z,44.42
2023-01-19T14:30:26.975Z,48.17
2023-01-19T14:32:29.766Z,46.40
2023-01-19T14:34:34.797Z,50.10
2023-01-19T14:36:39.337Z,45.88
2023-01-19T14:38:44.895Z,51.15
2023-01-19T14:40:47.183Z,51.08
2023-01-19T14:42:55.458Z,56.85
2023-01-19T14:44:59.927Z,59.20
2023-01-19T14:47:02.148Z,55.60
2023-01-19T14:49:05.855Z,55.08
2023-01-19T14:51:10.521Z,63.78
2023-01-19T14:53:24.520Z,62.30
2023-01-19T14:55:32.080Z,62.53
2023-01-19T14:57:35.440Z,58.25
2023-01-19T15:01:39.270Z,57.90
2023-01-19T15:03:45.675Z,61.83
2023-01-19T15:05:48.264Z,57.67
2023-01-19T15:07:49.971Z,58.43
2023-01-19T15:09:52.313Z,61.15
2023-01-19T15:11:54.099Z,60.40
2023-01-19T15:13:56.194Z,62.15
2023-01-19T15:15:58.959Z,59.42
2023-01-19T15:18:02.673Z,57.63
2023-01-19T15:20:11.688Z,64.63
2023-01-19T15:22:14.845Z,59.70
2023-01-19T15:24:17.997Z,61.30
2023-01-19T15:26:21.631Z,61.28
2023-01-19T15:28:23.315Z,60.58
2023-01-19T15:30:31.218Z,60.17
2023-01-19T15:32:33.028Z,57.08
2023-01-19T15:34:35.781Z,56.08
2023-01-19T15:36:37.534Z,58.92
2023-01-19T15:38:39.955Z,57.92
2023-01-19T15:40:41.901Z,58.10
2023-01-19T15:42:44.033Z,56.75
2023-01-19T15:44:45.739Z,57.53
2023-01-19T15:46:47.860Z,59.63
2023-01-19T15:48:50.677Z,59.92
2023-01-19T15:50:52.889Z,59.22
2023-01-19T15:52:54.785Z,58.47
2023-01-19T15:54:56.898Z,54.55
2023-01-19T15:56:58.608Z,56.53
2023-01-19T15:59:01.473Z,57.47
2023-01-19T16:01:03.340Z,55.05
2023-01-19T16:03:05.465Z,48.88
2023-01-19T16:05:08.141Z,47.88
2023-01-19T16:07:10.399Z,47.38
2023-01-19T16:09:16.906Z,43.72
2023-01-19T16:11:18.972Z,44.90
2023-01-19T16:13:20.644Z,47.13
2023-01-19T16:15:23.673Z,44.65
2023-01-19T16:17:25.580Z,41.95
2023-01-19T16:19:27.720Z,42.72
2023-01-19T16:21:29.459Z,45.65
2023-01-19T16:23:31.483Z,40.70
2023-01-19T16:25:33.279Z,42.22
2023-01-19T16:27:35.294Z,44.35
2023-01-19T16:29:37.008Z,40.97
2023-01-19T16:31:40.123Z,43.37
2023-01-19T16:33:42.063Z,45.50
2023-01-19T16:35:44.084Z,44.42
2023-01-19T16:37:49.608Z,47.63
2023-01-19T16:39:51.891Z,46.95
2023-01-19T16:41:53.753Z,48.85
2023-01-19T16:43:57.171Z,50.33
2023-01-19T16:46:02.893Z,47.17
2023-01-19T16:48:05.015Z,49.92
2023-01-19T16:50:06.856Z,44.70
2023-01-19T16:52:09.479Z,44.88
2023-01-19T16:54:15.085Z,45.88
2023-01-19T16:56:17.331Z,49.30
2023-01-19T16:58:19.360Z,47.88
2023-01-19T17:00:21.538Z,48.33
2023-01-19T17:02:23.330Z,53.90
2023-01-19T17:04:27.299Z,46.10
2023-01-19T17:06:30.248Z,43.78
2023-01-19T17:08:32.795Z,38.72
2023-01-19T17:10:36.135Z,40.85
2023-01-19T17:12:38.145Z,59.83
2023-01-19T17:14:39.841Z,45.92
2023-01-19T17:16:42.623Z,38.27
2023-01-19T17:18:44.372Z,42.95
2023-01-19T17:20:46.143Z,35.03
2023-01-19T17:22:48.191Z,41.50
2023-01-19T17:24:49.977Z,42.13
2023-01-19T17:26:52.060Z,38.17
2023-01-19T17:29:04.142Z,42.40
2023-01-19T17:31:11.193Z,36.03
2023-01-19T17:33:12.961Z,29.60
2023-01-19T17:35:15.127Z,32.47
2023-01-19T17:37:16.827Z,28.73
2023-01-19T17:39:19.082Z,31.67
2023-01-19T17:41:21.986Z,33.58
2023-01-19T17:43:24.127Z,36.58
2023-01-19T17:45:25.861Z,31.98
2023-01-19T17:47:27.891Z,52.93
2023-01-19T17:49:29.741Z,32.42
2023-01-19T17:51:32.144Z,35.05
2023-01-19T17:53:34.065Z,39.00
2023-01-19T17:55:36.431Z,39.03
2023-01-19T17:57:38.348Z,44.50
2023-01-19T17:59:43.780Z,44.90
2023-01-19T18:01:46.480Z,43.35
2023-01-19T18:03:48.998Z,41.53
2023-01-19T18:05:54.148Z,47.07
2023-01-19T18:07:55.900Z,46.35
2023-01-19T18:10:00.842Z,48.35
2023-01-19T18:12:02.731Z,47.47
2023-01-19T18:14:05.512Z,47.17
2023-01-19T18:16:08.707Z,47.85
2023-01-19T18:18:10.460Z,50.08
2023-01-19T18:20:12.773Z,51.33
2023-01-19T18:22:14.735Z,43.08
2023-01-19T18:24:16.875Z,49.60
2023-01-19T18:26:22.276Z,47.70
2023-01-19T18:28:24.440Z,48.38
2023-01-19T18:30:26.245Z,52.15
2023-01-19T18:32:28.258Z,47.78
2023-01-19T18:34:29.973Z,50.17
2023-01-19T18:36:32.661Z,50.90
2023-01-19T18:38:34.836Z,50.08
2023-01-19T18:40:36.997Z,51.33
2023-01-19T18:42:38.680Z,75.68
2023-01-19T18:44:40.679Z,52.37
2023-01-19T18:46:42.409Z,53.90
2023-01-19T18:48:44.582Z,56.33
2023-01-19T18:50:46.319Z,53.17
2023-01-19T18:52:48.762Z,50.93
2023-01-19T18:54:50.537Z,56.15
2023-01-19T18:56:52.620Z,52.30
2023-01-19T18:58:54.409Z,54.40
2023-01-19T19:00:56.548Z,57.70
2023-01-19T19:02:58.478Z,63.50
2023-01-19T19:05:00.750Z,59.17
2023-01-19T19:07:02.462Z,64.00
2023-01-19T19:09:05.263Z,63.45
2023-01-19T19:11:07.955Z,62.67
2023-01-19T19:15:11.748Z,59.40
2023-01-19T19:17:13.762Z,61.03
2023-01-19T19:19:15.681Z,59.63
2023-01-19T19:21:18.845Z,57.17
2023-01-19T19:23:20.583Z,58.50
2023-01-19T19:25:22.615Z,62.33
2023-01-19T19:27:24.296Z,63.50
2023-01-19T19:29:27.326Z,60.57
2023-01-19T19:31:30.319Z,63.03
2023-01-19T19:33:32.520Z,62.38
2023-01-19T19:35:34.195Z,62.70
2023-01-19T19:37:36.237Z,61.63
2023-01-19T19:39:38.524Z,61.00
2023-01-19T19:41:40.622Z,59.65
2023-01-19T19:43:42.315Z,62.70
2023-01-19T19:45:44.947Z,60.57
2023-01-19T19:47:46.583Z,67.13
2023-01-19T19:49:48.689Z,66.47
2023-01-19T19:51:50.357Z,61.22
2023-01-19T19:53:53.702Z,58.37
2023-01-19T19:57:57.369Z,57.25
2023-01-19T19:59:59.366Z,59.03
2023-01-19T20:02:01.138Z,58.85
2023-01-19T20:04:04.884Z,59.00
2023-01-19T20:06:07.632Z,58.47
2023-01-19T20:08:09.290Z,56.72
2023-01-19T20:10:11.699Z,62.93
2023-01-19T20:12:13.763Z,57.17
2023-01-19T20:14:16.404Z,62.15
2023-01-19T20:16:19.081Z,60.25
2023-01-19T20:18:20.981Z,59.53
2023-01-19T20:20:23.497Z,60.53
2023-01-19T20:22:25.194Z,66.93
2023-01-19T20:24:27.260Z,63.20
2023-01-19T20:26:30.069Z,65.10
2023-01-19T20:28:31.755Z,69.47
2023-01-19T20:30:33.901Z,67.33
2023-01-19T20:32:35.597Z,68.15
2023-01-19T20:34:38.516Z,65.73
2023-01-19T20:36:41.236Z,66.93
2023-01-19T20:38:43.682Z,62.65
2023-01-19T20:40:45.404Z,66.30
2023-01-19T20:42:47.523Z,72.40
2023-01-19T20:44:49.810Z,67.20
2023-01-19T20:46:51.968Z,64.32
2023-01-19T20:48:54.905Z,68.13
2023-01-19T20:51:00.369Z,67.85
2023-01-19T20:53:02.380Z,69.32
2023-01-19T20:55:04.385Z,65.70
2023-01-19T20:57:06.683Z,74.63
2023-01-19T20:59:09.397Z,72.82
2023-01-19T21:01:20.860Z,72.32
2023-01-19T21:03:22.622Z,70.10
2023-01-19T21:05:24.656Z,70.03
2023-01-19T21:07:26.547Z,76.53
2023-01-19T21:09:28.579Z,72.18
2023-01-19T21:11:30.303Z,77.45
2023-01-19T21:13:32.855Z,75.83
2023-01-19T21:15:34.594Z,73.82
2023-01-19T21:17:36.750Z,71.50
2023-01-19T21:19:38.602Z,78.95
2023-01-19T21:21:40.700Z,76.60
2023-01-19T21:23:44.550Z,79.53
2023-01-19T21:25:53.650Z,75.53
2023-01-19T21:27:55.370Z,75.38
2023-01-19T21:29:58.775Z,72.53
2023-01-19T21:32:01.139Z,74.25
2023-01-19T21:34:03.187Z,72.10
2023-01-19T21:36:05.067Z,74.50
2023-01-19T21:38:06.802Z,70.90
2023-01-19T21:40:09.248Z,74.60
2023-01-19T21:42:10.960Z,72.07
2023-01-19T21:44:13.355Z,72.28
2023-01-19T21:46:19.460Z,75.60
2023-01-19T21:48:21.521Z,69.22
2023-01-19T21:50:23.246Z,73.68
2023-01-19T21:52:25.393Z,73.50
2023-01-19T21:54:27.191Z,71.80
2023-01-19T21:56:29.940Z,75.40
2023-01-19T21:58:31.629Z,70.20
2023-01-19T22:00:33.399Z,77.38
2023-01-19T22:02:38.964Z,73.57
2023-01-19T22:04:41.108Z,71.03
2023-01-19T22:06:43.204Z,73.63
2023-01-19T22:08:46.538Z,70.13
2023-01-19T22:10:48.640Z,69.60
2023-01-19T22:12:50.374Z,69.70
2023-01-19T22:14:52.428Z,75.83
2023-01-19T22:16:54.205Z,77.22
2023-01-19T22:18:59.556Z,75.95
2023-01-19T22:21:11.382Z,65.95
2023-01-19T22:23:13.521Z,74.50
2023-01-19T22:25:15.629Z,75.50
2023-01-19T22:27:17.852Z,74.20
2023-01-19T22:29:19.618Z,71.40
2023-01-19T22:31:21.998Z,77.93
2023-01-19T22:33:23.787Z,73.90
2023-01-19T22:35:25.687Z,71.18
2023-01-19T22:37:27.681Z,77.47
2023-01-19T22:39:29.368Z,77.45
2023-01-19T22:41:32.365Z,80.20
2023-01-19T22:43:34.033Z,76.22
2023-01-19T22:45:40.197Z,79.45
2023-01-19T22:47:42.318Z,72.32
2023-01-19T22:49:44.143Z,75.22
2023-01-19T22:51:46.601Z,81.03
2023-01-19T22:53:48.270Z,80.20
2023-01-19T22:55:49.996Z,76.40
2023-01-19T22:57:52.279Z,81.43
2023-01-19T22:59:53.934Z,82.28
2023-01-19T23:01:56.301Z,77.70
2023-01-19T23:03:57.997Z,82.10
2023-01-19T23:06:06.290Z,82.80
2023-01-19T23:08:08.332Z,77.07
2023-01-19T23:10:10.474Z,81.97
2023-01-19T23:12:12.511Z,84.47
2023-01-19T23:14:15.590Z,84.72
2023-01-19T23:16:18.162Z,83.97
2023-01-19T23:18:19.835Z,93.78
2023-01-19T23:20:21.937Z,85.47
2023-01-19T23:22:23.632Z,85.93
2023-01-19T23:24:25.717Z,84.63
2023-01-19T23:26:27.796Z,88.15
2023-01-19T23:28:30.089Z,81.13
2023-01-19T23:30:32.182Z,87.60
2023-01-19T23:32:33.877Z,87.50
2023-01-19T23:34:35.937Z,86.87
2023-01-19T23:36:39.034Z,95.30
2023-01-19T23:38:41.211Z,90.78
2023-01-19T23:40:42.969Z,78.55
2023-01-19T23:42:45.034Z,94.53
2023-01-19T23:44:46.718Z,89.15
2023-01-19T23:46:48.903Z,93.70
2023-01-19T23:48:50.562Z,82.32
2023-01-19T23:50:52.734Z,85.45
2023-01-19T23:52:54.466Z,87.32
2023-01-19T23:54:56.507Z,91.53
2023-01-19T23:56:58.206Z,84.32
2023-01-19T23:59:01.586Z,90.97
